Terminal Aerodrome Forecast
Issued by NWS Pittsburgh, PA

Current Version | Previous Version | Text Only | Print | Product List | Glossary Off
Versions: 1 2 3 4 5 6 7 8 9 10 11 12 13 14 15 16 17 18 19 20 21 22 23 24 25 26 27 28

285
FTUS41 KPBZ 251916 AAA
TAFPIT
TAF AMD
KPIT 251916Z 2519/2624 33010KT P6SM BKN050
     FM252000 02010KT P6SM BKN050
     FM252300 VRB04KT P6SM BKN090
     FM261300 12007KT P6SM OVC050
     FM261600 15009KT P6SM VCSH OVC050=

USA.gov is the U.S. government's official web portal to all federal, state and local government web resources and services.